createdAt,value
2019-02-21T00:01:33.222Z,4.14
2019-02-21T00:04:03.794Z,4.17
2019-02-21T00:06:35.816Z,4.15
2019-02-21T00:09:07.571Z,4.18
2019-02-21T00:11:38.900Z,4.20
2019-02-21T00:14:09.556Z,4.17
2019-02-21T00:16:40.537Z,4.20
2019-02-21T00:19:11.563Z,4.19
2019-02-21T00:21:43.496Z,4.23
2019-02-21T00:24:13.950Z,4.23
2019-02-21T00:26:44.454Z,4.24
2019-02-21T00:29:14.807Z,4.24
2019-02-21T00:31:45.331Z,4.26
2019-02-21T00:34:16.318Z,4.28
2019-02-21T00:36:47.294Z,4.29
2019-02-21T00:39:18.524Z,4.21
2019-02-21T00:41:49.617Z,4.20
2019-02-21T00:44:20.492Z,4.17
2019-02-21T00:46:51.681Z,4.17
2019-02-21T00:49:23.127Z,4.18
2019-02-21T00:51:54.511Z,4.18
2019-02-21T00:54:27.115Z,4.14
2019-02-21T00:56:59.700Z,4.09
2019-02-21T00:59:30.186Z,4.08
2019-02-21T01:02:00.733Z,4.09
2019-02-21T01:04:31.574Z,4.10
2019-02-21T01:07:02.558Z,4.10
2019-02-21T01:09:33.644Z,4.10
2019-02-21T01:12:05.743Z,4.12
2019-02-21T01:14:36.371Z,4.13
2019-02-21T01:17:06.955Z,4.13
2019-02-21T01:19:37.520Z,4.10
2019-02-21T01:22:08.262Z,4.09
2019-02-21T01:24:39.276Z,4.08
2019-02-21T01:27:09.628Z,4.10
2019-02-21T01:29:41.559Z,4.08
2019-02-21T01:32:12.027Z,4.09
2019-02-21T01:34:43.653Z,4.08
2019-02-21T01:37:14.203Z,4.11
2019-02-21T01:39:45.135Z,4.15
2019-02-21T01:42:15.503Z,4.17
2019-02-21T01:44:47.302Z,4.17
2019-02-21T01:47:17.761Z,4.15
2019-02-21T01:49:49.519Z,4.07
2019-02-21T01:52:20.309Z,4.00
2019-02-21T01:54:50.748Z,4.02
2019-02-21T01:57:21.691Z,4.01
2019-02-21T01:59:52.276Z,4.09
2019-02-21T02:02:24.004Z,4.06
2019-02-21T02:04:55.360Z,4.06
2019-02-21T02:07:27.344Z,4.06
2019-02-21T02:09:57.867Z,4.03
2019-02-21T02:12:28.438Z,4.03
2019-02-21T02:14:58.880Z,4.06
2019-02-21T02:17:29.300Z,4.08
2019-02-21T02:20:00.368Z,4.06
2019-02-21T02:22:32.494Z,4.08
2019-02-21T02:25:03.279Z,4.07
2019-02-21T02:27:36.063Z,4.06
2019-02-21T02:30:07.786Z,4.05
2019-02-21T02:32:38.776Z,4.09
2019-02-21T02:35:09.481Z,4.11
2019-02-21T02:37:40.087Z,4.18
2019-02-21T02:40:10.910Z,4.26
2019-02-21T02:42:41.792Z,4.28
2019-02-21T02:45:12.137Z,4.28
2019-02-21T02:47:42.695Z,4.28
2019-02-21T02:50:14.251Z,4.33
2019-02-21T02:52:47.140Z,4.30
2019-02-21T02:55:17.615Z,4.24
2019-02-21T02:57:49.013Z,4.19
2019-02-21T03:00:20.405Z,4.17
2019-02-21T03:02:51.611Z,4.20
2019-02-21T03:05:22.068Z,4.21
2019-02-21T03:07:52.461Z,4.26
2019-02-21T03:10:24.390Z,4.31
2019-02-21T03:12:55.047Z,4.38
2019-02-21T03:15:25.901Z,4.42
2019-02-21T03:17:57.014Z,4.44
2019-02-21T03:20:28.342Z,4.51
2019-02-21T03:23:00.615Z,4.51
2019-02-21T03:25:31.377Z,4.55
2019-02-21T03:28:02.253Z,4.58
2019-02-21T03:30:33.619Z,4.56
2019-02-21T03:33:04.158Z,4.59
2019-02-21T03:35:34.626Z,4.57
2019-02-21T03:38:05.782Z,4.58
2019-02-21T03:40:36.840Z,4.57
2019-02-21T03:43:07.775Z,4.55
2019-02-21T03:45:39.902Z,4.47
2019-02-21T03:48:12.427Z,4.42
2019-02-21T03:50:47.257Z,4.21
2019-02-21T03:53:17.885Z,4.10
2019-02-21T03:55:48.489Z,4.10
2019-02-21T03:58:20.421Z,4.19
2019-02-21T04:00:51.144Z,4.19
2019-02-21T04:03:22.188Z,4.18
2019-02-21T04:05:52.648Z,4.18
2019-02-21T04:08:24.977Z,4.19
2019-02-21T04:10:55.633Z,4.15
2019-02-21T04:13:26.811Z,4.13
2019-02-21T04:15:57.501Z,4.16
2019-02-21T04:18:28.273Z,4.13
2019-02-21T04:20:59.003Z,4.11
2019-02-21T04:23:29.442Z,4.10
2019-02-21T04:26:00.573Z,4.13
2019-02-21T04:28:31.647Z,4.16
2019-02-21T04:31:03.186Z,4.17
2019-02-21T04:33:34.607Z,4.18
2019-02-21T04:36:05.592Z,4.22
2019-02-21T04:38:36.375Z,4.26
2019-02-21T04:41:08.388Z,4.26
2019-02-21T04:43:39.175Z,4.28
2019-02-21T04:46:09.886Z,4.30
2019-02-21T04:48:40.808Z,4.25
2019-02-21T04:51:12.737Z,4.24
2019-02-21T04:53:43.394Z,4.26
2019-02-21T04:56:14.824Z,4.25
2019-02-21T04:58:45.237Z,4.24
2019-02-21T05:01:17.817Z,4.04
2019-02-21T05:03:48.970Z,3.86
2019-02-21T05:06:19.979Z,3.73
2019-02-21T05:08:50.560Z,3.67
2019-02-21T05:11:21.555Z,3.67
2019-02-21T05:13:53.953Z,3.63
2019-02-21T05:16:24.595Z,3.64
2019-02-21T05:18:55.281Z,3.63
2019-02-21T05:21:26.016Z,3.67
2019-02-21T05:23:56.846Z,3.70
2019-02-21T05:26:32.125Z,3.71
2019-02-21T05:29:03.591Z,3.75
2019-02-21T05:32:11.195Z,3.77
2019-02-21T05:34:49.373Z,3.79
2019-02-21T05:37:39.249Z,3.70
2019-02-21T05:40:31.892Z,3.70
2019-02-21T05:43:13.432Z,3.75
2019-02-21T05:46:18.547Z,3.74
2019-02-21T05:49:17.177Z,3.73
2019-02-21T05:51:57.126Z,3.86
2019-02-21T05:54:32.239Z,3.84
2019-02-21T05:57:16.807Z,3.79
2019-02-21T06:00:09.309Z,3.78
2019-02-21T06:02:57.624Z,3.76
2019-02-21T06:05:34.447Z,3.80
2019-02-21T06:08:31.121Z,3.88
2019-02-21T06:11:20.037Z,3.89
2019-02-21T06:14:08.945Z,3.88
2019-02-21T06:16:57.806Z,3.89
2019-02-21T06:19:59.272Z,3.86
2019-02-21T06:22:57.944Z,3.86
2019-02-21T06:25:50.905Z,3.89
2019-02-21T06:28:23.752Z,3.89
2019-02-21T06:31:01.608Z,3.91
2019-02-21T06:33:34.167Z,3.97
2019-02-21T06:36:05.699Z,3.99
2019-02-21T06:38:36.269Z,4.05
2019-02-21T06:41:08.048Z,4.03
2019-02-21T06:43:38.858Z,4.04
2019-02-21T06:46:09.304Z,3.98
2019-02-21T06:48:40.308Z,4.06
2019-02-21T06:51:12.784Z,4.06
2019-02-21T06:53:43.479Z,4.10
2019-02-21T06:56:14.409Z,4.08
2019-02-21T06:58:47.851Z,4.01
2019-02-21T07:01:28.192Z,4.01
2019-02-21T07:03:52.858Z,4.02
2019-02-21T07:06:31.618Z,4.05
2019-02-21T07:08:55.858Z,4.09
2019-02-21T07:11:26.277Z,4.11
2019-02-21T07:13:57.484Z,4.13
2019-02-21T07:16:28.395Z,4.19
2019-02-21T07:18:58.937Z,4.30
2019-02-21T07:21:29.326Z,4.34
2019-02-21T07:24:00.075Z,4.41
2019-02-21T07:26:30.486Z,4.48
2019-02-21T07:29:01.255Z,4.51
2019-02-21T07:31:32.623Z,4.64
2019-02-21T07:34:03.435Z,4.63
2019-02-21T07:36:35.081Z,4.63
2019-02-21T07:39:17.015Z,4.71
2019-02-21T07:41:41.675Z,4.80
2019-02-21T07:44:12.668Z,4.83
2019-02-21T07:46:42.998Z,4.87
2019-02-21T07:49:13.777Z,5.04
2019-02-21T07:51:45.888Z,4.97
2019-02-21T07:54:17.137Z,5.01
2019-02-21T07:56:48.845Z,5.07
2019-02-21T07:59:19.376Z,5.22
2019-02-21T08:01:51.761Z,5.26
2019-02-21T08:04:22.244Z,5.14
2019-02-21T08:06:55.564Z,5.28
2019-02-21T08:09:28.079Z,5.25
2019-02-21T08:11:59.561Z,5.25
2019-02-21T08:14:30.343Z,5.34
2019-02-21T08:17:01.714Z,5.37
2019-02-21T08:19:32.110Z,5.47
2019-02-21T08:22:02.986Z,5.58
2019-02-21T08:24:33.608Z,5.58
2019-02-21T08:27:04.530Z,5.70
2019-02-21T08:29:35.664Z,5.82
2019-02-21T08:32:06.144Z,5.86
2019-02-21T08:34:40.975Z,5.97
2019-02-21T08:37:11.685Z,5.92
2019-02-21T08:39:43.209Z,5.97
2019-02-21T08:42:15.274Z,6.10
2019-02-21T08:44:45.675Z,6.21
2019-02-21T08:47:17.416Z,6.24
2019-02-21T08:49:48.018Z,6.19
2019-02-21T08:52:18.847Z,6.29
2019-02-21T08:54:59.893Z,6.25
2019-02-21T08:57:24.029Z,6.37
2019-02-21T08:59:54.491Z,6.50
2019-02-21T09:02:26.202Z,6.51
2019-02-21T09:04:56.826Z,6.57
2019-02-21T09:07:27.409Z,6.63
2019-02-21T09:09:58.220Z,6.74
2019-02-21T09:12:28.783Z,6.76
2019-02-21T09:15:00.589Z,6.79
2019-02-21T09:17:32.183Z,6.96
2019-02-21T09:20:03.821Z,6.84
2019-02-21T09:22:34.174Z,6.87
2019-02-21T09:25:06.720Z,7.01
2019-02-21T09:27:37.829Z,7.18
2019-02-21T09:30:12.524Z,7.10
2019-02-21T09:32:44.863Z,7.12
2019-02-21T09:35:15.505Z,7.27
2019-02-21T09:37:46.203Z,7.51
2019-02-21T09:40:17.359Z,7.72
2019-02-21T09:42:48.389Z,7.46
2019-02-21T09:45:19.617Z,7.56
2019-02-21T09:47:50.416Z,7.28
2019-02-21T09:50:22.245Z,7.32
2019-02-21T09:52:53.977Z,7.43
2019-02-21T09:55:25.139Z,7.55
2019-02-21T09:57:55.865Z,7.43
2019-02-21T10:00:26.670Z,7.51
2019-02-21T10:02:57.105Z,7.67
2019-02-21T10:05:27.737Z,7.62
2019-02-21T10:07:59.310Z,7.58
2019-02-21T10:10:29.883Z,7.44
2019-02-21T10:13:01.839Z,7.60
2019-02-21T10:15:32.888Z,7.56
2019-02-21T10:18:03.228Z,7.70
2019-02-21T10:20:33.628Z,7.65
2019-02-21T10:23:05.915Z,7.69
2019-02-21T10:25:37.084Z,7.72
2019-02-21T10:28:07.588Z,7.77
2019-02-21T10:30:39.604Z,7.93
2019-02-21T10:33:11.313Z,7.97
2019-02-21T10:35:42.967Z,7.92
2019-02-21T10:38:14.601Z,7.97
2019-02-21T10:40:46.534Z,8.12
2019-02-21T10:43:16.964Z,7.92
2019-02-21T10:45:48.322Z,7.85
2019-02-21T10:48:19.119Z,7.74
2019-02-21T10:50:49.665Z,7.83
2019-02-21T10:53:20.334Z,7.80
2019-02-21T10:55:50.825Z,7.94
2019-02-21T10:58:21.443Z,8.07
2019-02-21T11:00:52.891Z,8.17
2019-02-21T11:03:23.236Z,8.15
2019-02-21T11:05:53.648Z,8.16
2019-02-21T11:08:26.019Z,8.19
2019-02-21T11:10:56.782Z,8.32
2019-02-21T11:13:28.739Z,8.33
2019-02-21T11:15:59.417Z,8.10
2019-02-21T11:18:30.868Z,8.22
2019-02-21T11:21:01.307Z,8.36
2019-02-21T11:23:31.823Z,8.33
2019-02-21T11:26:03.918Z,8.17
2019-02-21T11:28:34.439Z,8.42
2019-02-21T11:31:05.122Z,8.65
2019-02-21T11:33:35.746Z,8.61
2019-02-21T11:36:06.276Z,8.64
2019-02-21T11:38:36.891Z,8.81
2019-02-21T11:41:07.821Z,8.86
2019-02-21T11:43:38.526Z,8.88
2019-02-21T11:46:09.150Z,8.93
2019-02-21T11:48:39.662Z,9.06
2019-02-21T11:51:10.440Z,9.07
2019-02-21T11:53:40.902Z,8.94
2019-02-21T11:56:11.483Z,8.96
2019-02-21T11:58:42.073Z,9.06
2019-02-21T12:01:13.150Z,9.10
2019-02-21T12:03:44.773Z,9.08
2019-02-21T12:06:16.706Z,9.18
2019-02-21T12:08:47.442Z,9.01
2019-02-21T12:11:17.946Z,9.07
2019-02-21T12:13:48.635Z,8.94
2019-02-21T12:16:19.283Z,8.84
2019-02-21T12:18:51.102Z,8.92
2019-02-21T12:21:23.586Z,9.04
2019-02-21T12:23:54.091Z,9.00
2019-02-21T12:26:24.474Z,9.01
2019-02-21T12:28:55.801Z,8.85
2019-02-21T12:31:26.387Z,8.85
2019-02-21T12:33:56.837Z,8.80
2019-02-21T12:36:27.961Z,8.77
2019-02-21T12:38:58.619Z,8.80
2019-02-21T12:41:29.164Z,8.76
2019-02-21T12:43:59.852Z,8.68
2019-02-21T12:46:32.458Z,8.75
2019-02-21T12:49:02.946Z,8.74
2019-02-21T12:51:33.752Z,8.64
2019-02-21T12:54:04.553Z,8.64
2019-02-21T12:56:35.263Z,8.70
2019-02-21T12:59:05.704Z,8.62
2019-02-21T13:01:37.183Z,8.75
2019-02-21T13:04:08.226Z,8.78
2019-02-21T13:06:40.140Z,8.70
2019-02-21T13:09:10.989Z,8.62
2019-02-21T13:11:42.179Z,8.70
2019-02-21T13:14:14.139Z,8.70
2019-02-21T13:16:46.264Z,8.72
2019-02-21T13:19:17.034Z,8.73
2019-02-21T13:21:47.886Z,8.70
2019-02-21T13:24:18.214Z,8.78
2019-02-21T13:26:49.212Z,8.89
2019-02-21T13:29:21.486Z,8.84
2019-02-21T13:31:52.321Z,8.77
2019-02-21T13:34:23.105Z,8.75
2019-02-21T13:36:53.775Z,8.78
2019-02-21T13:39:24.379Z,8.78
2019-02-21T13:41:58.194Z,8.69
2019-02-21T13:44:28.677Z,8.74
2019-02-21T13:46:59.238Z,8.78
2019-02-21T13:49:29.780Z,8.62
2019-02-21T13:52:00.392Z,8.67
2019-02-21T13:54:31.045Z,8.66
2019-02-21T13:57:01.786Z,8.65
2019-02-21T13:59:34.917Z,8.75
2019-02-21T14:02:06.047Z,8.66
2019-02-21T14:04:37.957Z,8.68
2019-02-21T14:07:08.722Z,8.62
2019-02-21T14:09:39.619Z,8.62
2019-02-21T14:12:11.611Z,8.61
2019-02-21T14:14:44.121Z,8.65
2019-02-21T14:17:15.592Z,8.67
2019-02-21T14:19:47.385Z,8.46
2019-02-21T14:22:17.957Z,8.38
2019-02-21T14:24:50.877Z,8.44
2019-02-21T14:27:21.452Z,8.38
2019-02-21T14:29:52.106Z,8.37
2019-02-21T14:32:23.442Z,8.26
2019-02-21T14:34:54.017Z,8.20
2019-02-21T14:37:25.191Z,8.20
2019-02-21T14:39:55.863Z,8.17
2019-02-21T14:42:27.107Z,8.03
2019-02-21T14:44:57.861Z,8.02
2019-02-21T14:47:28.515Z,8.01
2019-02-21T14:49:59.828Z,7.94
2019-02-21T14:52:30.276Z,7.87
2019-02-21T14:55:01.863Z,7.86
2019-02-21T14:57:40.568Z,7.81
2019-02-21T15:00:05.341Z,7.74
2019-02-21T15:02:36.195Z,7.71
2019-02-21T15:05:09.930Z,7.60
2019-02-21T15:07:41.206Z,7.63
2019-02-21T15:10:12.097Z,7.51
2019-02-21T15:12:42.529Z,7.51
2019-02-21T15:15:14.220Z,7.47
2019-02-21T15:17:44.642Z,7.46
2019-02-21T15:20:16.053Z,7.44
2019-02-21T15:22:48.621Z,7.41
2019-02-21T15:25:19.295Z,7.41
2019-02-21T15:27:50.067Z,7.35
2019-02-21T15:30:22.205Z,7.24
2019-02-21T15:32:52.977Z,7.21
2019-02-21T15:35:23.901Z,7.16
2019-02-21T15:37:54.464Z,7.10
2019-02-21T15:40:25.197Z,7.11
2019-02-21T15:42:55.816Z,7.05
2019-02-21T15:45:26.825Z,7.08
2019-02-21T15:47:58.291Z,7.05
2019-02-21T15:50:28.801Z,6.97
2019-02-21T15:52:59.263Z,6.89
2019-02-21T15:55:32.029Z,6.84
2019-02-21T15:58:04.292Z,6.71
2019-02-21T16:00:34.503Z,6.68
2019-02-21T16:03:06.750Z,6.69
2019-02-21T16:05:37.770Z,6.63
2019-02-21T16:08:08.266Z,6.60
2019-02-21T16:10:39.922Z,6.57
2019-02-21T16:13:10.889Z,6.53
2019-02-21T16:15:41.384Z,6.47
2019-02-21T16:18:13.886Z,6.41
2019-02-21T16:20:44.080Z,6.30
2019-02-21T16:23:14.458Z,6.26
2019-02-21T16:25:44.860Z,6.23
2019-02-21T16:28:15.430Z,6.18
2019-02-21T16:30:45.859Z,6.14
2019-02-21T16:33:16.292Z,6.08
2019-02-21T16:35:48.355Z,6.04
2019-02-21T16:38:18.850Z,6.06
2019-02-21T16:40:49.353Z,5.98
2019-02-21T16:43:20.882Z,5.92
2019-02-21T16:45:53.823Z,5.90
2019-02-21T16:48:24.968Z,5.89
2019-02-21T16:50:55.765Z,5.90
2019-02-21T16:53:26.424Z,5.83
2019-02-21T16:55:57.189Z,5.81
2019-02-21T16:58:27.775Z,5.79
2019-02-21T17:00:58.435Z,5.74
2019-02-21T17:03:28.905Z,5.72
2019-02-21T17:05:59.586Z,5.70
2019-02-21T17:08:31.341Z,5.68
2019-02-21T17:11:01.735Z,5.64
2019-02-21T17:13:32.207Z,5.66
2019-02-21T17:16:02.849Z,5.60
2019-02-21T17:18:33.395Z,5.51
2019-02-21T17:21:04.833Z,5.47
2019-02-21T17:23:35.671Z,5.42
2019-02-21T17:26:06.216Z,5.34
2019-02-21T17:28:36.686Z,5.32
2019-02-21T17:31:07.215Z,5.29
2019-02-21T17:33:37.785Z,5.22
2019-02-21T17:36:08.297Z,5.18
2019-02-21T17:38:38.793Z,5.14
2019-02-21T17:41:09.604Z,5.13
2019-02-21T17:43:40.117Z,5.06
2019-02-21T17:46:10.516Z,5.05
2019-02-21T17:48:41.267Z,5.00
2019-02-21T17:51:11.677Z,4.99
2019-02-21T17:53:42.073Z,4.93
2019-02-21T17:56:12.411Z,4.90
2019-02-21T17:58:42.892Z,4.86
2019-02-21T18:01:13.326Z,4.84
2019-02-21T18:03:43.680Z,4.79
2019-02-21T18:06:14.124Z,4.75
2019-02-21T18:08:44.604Z,4.71
2019-02-21T18:11:15.110Z,4.63
2019-02-21T18:13:45.621Z,4.62
2019-02-21T18:16:16.037Z,4.56
2019-02-21T18:18:46.653Z,4.53
2019-02-21T18:21:17.147Z,4.50
2019-02-21T18:23:47.899Z,4.50
2019-02-21T18:26:19.646Z,4.46
2019-02-21T18:28:50.306Z,4.40
2019-02-21T18:31:25.314Z,4.38
2019-02-21T18:33:55.817Z,4.34
2019-02-21T18:36:26.409Z,4.35
2019-02-21T18:38:57.007Z,4.32
2019-02-21T18:41:27.513Z,4.25
2019-02-21T18:43:58.250Z,4.23
2019-02-21T18:46:28.662Z,4.22
2019-02-21T18:49:02.781Z,4.22
2019-02-21T18:51:33.278Z,4.20
2019-02-21T18:54:03.711Z,4.18
2019-02-21T18:56:34.301Z,4.17
2019-02-21T18:59:04.729Z,4.16
2019-02-21T19:01:35.356Z,4.15
2019-02-21T19:04:06.688Z,4.13
2019-02-21T19:06:37.540Z,4.15
2019-02-21T19:09:09.500Z,4.13
2019-02-21T19:11:40.232Z,4.13
2019-02-21T19:14:10.667Z,4.14
2019-02-21T19:16:41.807Z,4.12
2019-02-21T19:19:12.195Z,4.11
2019-02-21T19:21:43.353Z,4.11
2019-02-21T19:24:13.971Z,4.11
2019-02-21T19:26:44.448Z,4.12
2019-02-21T19:29:16.632Z,4.12
2019-02-21T19:31:47.242Z,4.12
2019-02-21T19:34:18.025Z,4.13
2019-02-21T19:36:48.535Z,4.13
2019-02-21T19:39:19.084Z,4.11
2019-02-21T19:41:49.918Z,4.13
2019-02-21T19:44:20.562Z,4.10
2019-02-21T19:46:51.215Z,4.09
2019-02-21T19:49:21.986Z,4.11
2019-02-21T19:51:52.644Z,4.10
2019-02-21T19:54:23.270Z,4.11
2019-02-21T19:56:54.118Z,4.12
2019-02-21T19:59:25.163Z,4.12
2019-02-21T20:01:57.046Z,4.15
2019-02-21T20:04:29.032Z,4.11
2019-02-21T20:07:01.064Z,4.12
2019-02-21T20:09:31.550Z,4.13
2019-02-21T20:12:02.534Z,4.11
2019-02-21T20:14:33.008Z,4.13
2019-02-21T20:17:03.645Z,4.10
2019-02-21T20:19:34.067Z,4.09
2019-02-21T20:22:04.469Z,4.08
2019-02-21T20:24:34.877Z,4.08
2019-02-21T20:27:05.647Z,4.08
2019-02-21T20:29:36.046Z,4.08
2019-02-21T20:32:07.298Z,4.10
2019-02-21T20:34:37.636Z,4.07
2019-02-21T20:37:08.301Z,4.08
2019-02-21T20:39:39.101Z,4.07
2019-02-21T20:42:09.999Z,4.08
2019-02-21T20:44:40.566Z,4.05
2019-02-21T20:47:11.092Z,4.05
2019-02-21T20:49:41.931Z,4.08
2019-02-21T20:52:12.515Z,4.09
2019-02-21T20:54:43.134Z,4.09
2019-02-21T20:57:14.229Z,4.11
2019-02-21T20:59:44.557Z,4.10
2019-02-21T21:02:15.390Z,4.10
2019-02-21T21:04:47.153Z,4.10
2019-02-21T21:07:24.813Z,4.07
2019-02-21T21:09:49.746Z,4.10
2019-02-21T21:12:20.190Z,4.11
2019-02-21T21:14:50.653Z,4.10
2019-02-21T21:17:21.131Z,4.11
2019-02-21T21:19:51.479Z,4.12
2019-02-21T21:22:21.956Z,4.14
2019-02-21T21:24:52.406Z,4.12
2019-02-21T21:27:22.906Z,4.15
2019-02-21T21:29:53.406Z,4.15
2019-02-21T21:32:23.945Z,4.17
2019-02-21T21:34:55.999Z,4.18
2019-02-21T21:37:27.055Z,4.20
2019-02-21T21:39:58.943Z,4.18
2019-02-21T21:42:29.342Z,4.20
2019-02-21T21:45:01.502Z,4.23
2019-02-21T21:47:32.410Z,4.21
2019-02-21T21:50:03.121Z,4.24
2019-02-21T21:52:33.867Z,4.24
2019-02-21T21:55:05.012Z,4.25
2019-02-21T21:57:35.470Z,4.29
2019-02-21T22:00:07.237Z,4.30
2019-02-21T22:02:39.364Z,4.32
2019-02-21T22:05:10.023Z,4.34
2019-02-21T22:07:40.873Z,4.33
2019-02-21T22:10:12.263Z,4.36
2019-02-21T22:12:43.383Z,4.38
2019-02-21T22:15:14.373Z,4.38
2019-02-21T22:17:45.222Z,4.41
2019-02-21T22:20:16.202Z,4.46
2019-02-21T22:22:47.198Z,4.47
2019-02-21T22:25:18.375Z,4.45
2019-02-21T22:27:49.278Z,4.45
2019-02-21T22:30:20.417Z,4.46
2019-02-21T22:32:51.411Z,4.46
2019-02-21T22:35:22.407Z,4.48
2019-02-21T22:37:53.455Z,4.48
2019-02-21T22:40:24.542Z,4.50
2019-02-21T22:42:55.712Z,4.53
2019-02-21T22:45:27.012Z,4.53
2019-02-21T22:47:58.362Z,4.54
2019-02-21T22:50:29.332Z,4.54
2019-02-21T22:53:00.410Z,4.55
2019-02-21T22:55:31.483Z,4.55
2019-02-21T22:58:02.524Z,4.56
2019-02-21T23:01:00.267Z,4.55
2019-02-21T23:03:56.249Z,4.55
2019-02-21T23:06:35.111Z,4.57
2019-02-21T23:09:13.494Z,4.58
2019-02-21T23:11:44.968Z,4.58
2019-02-21T23:14:16.674Z,4.58
2019-02-21T23:16:48.420Z,4.63
2019-02-21T23:19:19.466Z,4.60
2019-02-21T23:21:50.558Z,4.62
2019-02-21T23:24:21.597Z,4.64
2019-02-21T23:26:53.613Z,4.64
2019-02-21T23:29:24.808Z,4.63
2019-02-21T23:31:55.981Z,4.64
2019-02-21T23:34:34.566Z,4.64
2019-02-21T23:37:06.240Z,4.67
2019-02-21T23:39:38.595Z,4.69
2019-02-21T23:42:09.551Z,4.72
2019-02-21T23:44:40.991Z,4.69
2019-02-21T23:47:11.998Z,4.73
2019-02-21T23:49:42.953Z,4.73
2019-02-21T23:52:14.172Z,4.72
2019-02-21T23:54:45.317Z,4.74
2019-02-21T23:57:16.314Z,4.71
2019-02-21T23:59:47.824Z,4.70
